createdAt,value
2022-07-29T00:01:53.347Z,95.80
2022-07-29T00:04:21.522Z,95.80
2022-07-29T00:06:48.680Z,96.00
2022-07-29T00:09:15.500Z,96.10
2022-07-29T00:11:42.542Z,96.30
2022-07-29T00:14:09.603Z,96.60
2022-07-29T00:16:36.695Z,96.60
2022-07-29T00:19:04.041Z,96.80
2022-07-29T00:21:30.755Z,96.70
2022-07-29T00:23:57.365Z,96.80
2022-07-29T00:26:23.970Z,96.50
2022-07-29T00:28:50.575Z,96.70
2022-07-29T00:31:17.321Z,96.80
2022-07-29T00:33:43.900Z,97.10
2022-07-29T00:36:10.464Z,97.40
2022-07-29T00:38:37.111Z,97.60
2022-07-29T00:41:03.743Z,97.60
2022-07-29T00:43:30.355Z,97.40
2022-07-29T00:45:57.015Z,97.30
2022-07-29T00:48:23.599Z,97.20
2022-07-29T00:50:51.029Z,97.20
2022-07-29T00:53:17.854Z,97.70
2022-07-29T00:55:44.526Z,97.90
2022-07-29T00:58:13.259Z,97.70
2022-07-29T01:00:41.703Z,97.50
2022-07-29T01:03:08.907Z,97.10
2022-07-29T01:05:51.257Z,96.90
2022-07-29T01:08:19.406Z,96.70
2022-07-29T01:10:47.766Z,96.60
2022-07-29T01:13:16.874Z,96.60
2022-07-29T01:15:51.346Z,96.60
2022-07-29T01:18:36.981Z,96.40
2022-07-29T01:21:38.650Z,96.30
2022-07-29T01:24:34.770Z,95.80
2022-07-29T01:27:13.306Z,95.80
2022-07-29T01:29:47.900Z,95.80
2022-07-29T01:32:28.679Z,95.70
2022-07-29T01:35:06.865Z,95.70
2022-07-29T01:37:43.940Z,95.60
2022-07-29T01:40:29.917Z,95.50
2022-07-29T01:43:00.812Z,95.40
2022-07-29T01:45:42.499Z,95.20
2022-07-29T01:48:28.373Z,95.10
2022-07-29T01:51:06.759Z,95.20
2022-07-29T01:53:43.425Z,95.20
2022-07-29T01:56:12.004Z,95.20
2022-07-29T01:58:42.194Z,95.30
2022-07-29T02:01:12.139Z,95.40
2022-07-29T02:03:39.958Z,95.30
2022-07-29T02:06:08.799Z,95.20
2022-07-29T02:08:36.551Z,95.10
2022-07-29T02:11:05.778Z,95.10
2022-07-29T02:13:35.227Z,95.10
2022-07-29T02:16:03.439Z,95.10
2022-07-29T02:18:31.735Z,95.10
2022-07-29T02:21:00.315Z,95.10
2022-07-29T02:23:27.527Z,95.20
2022-07-29T02:25:57.378Z,95.20
2022-07-29T02:28:27.447Z,95.20
2022-07-29T02:30:59.926Z,95.20
2022-07-29T02:33:27.488Z,95.30
2022-07-29T02:35:55.567Z,95.50
2022-07-29T02:38:41.724Z,95.60
2022-07-29T02:41:20.795Z,95.50
2022-07-29T02:43:51.150Z,95.50
2022-07-29T02:46:28.954Z,95.40
2022-07-29T02:49:02.788Z,95.50
2022-07-29T02:51:43.343Z,95.40
2022-07-29T02:54:18.684Z,95.50
2022-07-29T02:56:47.263Z,95.50
2022-07-29T02:59:14.922Z,95.60
2022-07-29T03:01:44.592Z,95.70
2022-07-29T03:04:13.409Z,95.90
2022-07-29T03:06:41.930Z,96.30
2022-07-29T03:09:12.489Z,95.80
2022-07-29T03:11:50.153Z,95.80
2022-07-29T03:14:21.502Z,95.70
2022-07-29T03:16:49.419Z,95.80
2022-07-29T03:19:17.146Z,95.80
2022-07-29T03:21:43.734Z,95.80
2022-07-29T03:24:11.062Z,95.80
2022-07-29T03:26:37.927Z,95.80
2022-07-29T03:29:04.588Z,95.80
2022-07-29T03:31:32.228Z,95.80
2022-07-29T03:34:00.231Z,95.80
2022-07-29T03:36:26.896Z,95.90
2022-07-29T03:38:54.175Z,96.00
2022-07-29T03:41:23.554Z,95.90
2022-07-29T03:43:52.650Z,96.00
2022-07-29T03:46:23.416Z,96.00
2022-07-29T03:48:53.601Z,95.90
2022-07-29T03:51:20.396Z,95.80
2022-07-29T03:54:14.200Z,95.80
2022-07-29T03:56:45.441Z,95.80
2022-07-29T03:59:13.635Z,95.80
2022-07-29T04:01:41.558Z,95.90
2022-07-29T04:04:08.370Z,96.10
2022-07-29T04:06:43.014Z,96.20
2022-07-29T04:09:10.461Z,96.20
2022-07-29T04:12:02.408Z,96.30
2022-07-29T04:14:27.953Z,96.30
2022-07-29T04:16:54.650Z,96.20
2022-07-29T04:19:21.223Z,96.10
2022-07-29T04:21:48.068Z,96.20
2022-07-29T04:24:15.199Z,96.10
2022-07-29T04:26:42.096Z,96.20
2022-07-29T04:29:08.703Z,96.30
2022-07-29T04:31:35.432Z,96.40
2022-07-29T04:34:02.092Z,96.70
2022-07-29T04:36:29.963Z,96.80
2022-07-29T04:38:56.968Z,96.70
2022-07-29T04:41:23.570Z,96.80
2022-07-29T04:44:01.734Z,96.90
2022-07-29T04:46:28.533Z,96.80
2022-07-29T04:48:55.234Z,96.70
2022-07-29T04:51:21.935Z,96.60
2022-07-29T04:53:48.823Z,96.60
2022-07-29T04:56:15.454Z,96.60
2022-07-29T04:58:42.003Z,96.50
2022-07-29T05:01:08.696Z,96.40
2022-07-29T05:03:35.321Z,96.50
2022-07-29T05:06:01.922Z,96.40
2022-07-29T05:08:28.622Z,96.30
2022-07-29T05:10:55.399Z,96.30
2022-07-29T05:13:21.962Z,96.30
2022-07-29T05:15:48.658Z,96.30
2022-07-29T05:18:15.275Z,96.30
2022-07-29T05:20:41.995Z,96.20
2022-07-29T05:23:08.703Z,96.20
2022-07-29T05:25:43.179Z,96.10
2022-07-29T05:28:11.513Z,96.10
2022-07-29T05:30:38.178Z,96.40
2022-07-29T05:33:04.839Z,96.00
2022-07-29T05:35:31.433Z,96.00
2022-07-29T05:37:58.001Z,95.90
2022-07-29T05:40:24.642Z,96.00
2022-07-29T05:42:51.249Z,96.10
2022-07-29T05:45:17.930Z,96.20
2022-07-29T05:47:44.592Z,96.10
2022-07-29T05:50:11.395Z,96.20
2022-07-29T05:52:38.025Z,96.30
2022-07-29T05:55:06.387Z,96.30
2022-07-29T05:57:33.154Z,96.20
2022-07-29T06:00:00.111Z,96.30
2022-07-29T06:02:26.752Z,96.40
2022-07-29T06:04:53.436Z,96.30
2022-07-29T06:07:20.443Z,96.30
2022-07-29T06:09:47.009Z,96.30
2022-07-29T06:12:13.615Z,96.40
2022-07-29T06:14:40.246Z,96.50
2022-07-29T06:17:07.014Z,96.40
2022-07-29T06:19:36.629Z,96.40
2022-07-29T06:22:03.769Z,96.40
2022-07-29T06:24:30.375Z,96.40
2022-07-29T06:26:57.024Z,96.40
2022-07-29T06:29:23.695Z,96.40
2022-07-29T06:31:50.250Z,96.50
2022-07-29T06:34:17.381Z,96.60
2022-07-29T06:36:44.467Z,96.60
2022-07-29T06:39:12.943Z,96.70
2022-07-29T06:41:39.690Z,96.80
2022-07-29T06:44:06.395Z,97.10
2022-07-29T06:46:33.603Z,97.20
2022-07-29T06:49:02.448Z,97.20
2022-07-29T06:51:29.422Z,97.20
2022-07-29T06:53:59.822Z,97.10
2022-07-29T06:56:39.098Z,97.10
2022-07-29T06:59:08.023Z,97.10
2022-07-29T07:01:35.798Z,97.10
2022-07-29T07:04:02.569Z,97.20
2022-07-29T07:06:29.232Z,97.20
2022-07-29T07:08:55.883Z,97.30
2022-07-29T07:11:22.621Z,97.30
2022-07-29T07:13:49.351Z,97.10
2022-07-29T07:16:16.120Z,97.20
2022-07-29T07:18:43.042Z,97.40
2022-07-29T07:21:09.811Z,97.10
2022-07-29T07:23:36.425Z,96.70
2022-07-29T07:26:03.971Z,96.70
2022-07-29T07:28:30.649Z,96.60
2022-07-29T07:30:57.380Z,96.50
2022-07-29T07:33:24.207Z,96.20
2022-07-29T07:35:50.873Z,96.10
2022-07-29T07:38:17.522Z,95.90
2022-07-29T07:40:44.080Z,96.00
2022-07-29T07:43:10.621Z,96.20
2022-07-29T07:45:38.355Z,95.60
2022-07-29T07:48:05.778Z,95.50
2022-07-29T07:50:32.708Z,95.30
2022-07-29T07:52:59.430Z,95.50
2022-07-29T07:55:27.300Z,95.80
2022-07-29T07:57:54.696Z,95.90
2022-07-29T08:00:23.760Z,95.60
2022-07-29T08:02:51.056Z,95.80
2022-07-29T08:05:18.468Z,95.90
2022-07-29T08:07:47.124Z,96.00
2022-07-29T08:10:15.630Z,96.10
2022-07-29T08:12:43.077Z,96.40
2022-07-29T08:15:10.054Z,96.70
2022-07-29T08:17:36.988Z,97.00
2022-07-29T08:20:04.352Z,97.30
2022-07-29T08:22:31.044Z,97.30
2022-07-29T08:24:57.726Z,96.40
2022-07-29T08:27:42.890Z,96.70
2022-07-29T08:30:11.057Z,96.90
2022-07-29T08:32:53.199Z,97.20
2022-07-29T08:35:21.492Z,97.30
2022-07-29T08:37:48.185Z,97.00
2022-07-29T08:40:15.282Z,96.90
2022-07-29T08:42:42.030Z,97.00
2022-07-29T08:45:09.299Z,97.00
2022-07-29T08:47:40.610Z,97.00
2022-07-29T08:50:09.346Z,97.00
2022-07-29T08:52:41.759Z,96.70
2022-07-29T08:55:10.513Z,96.60
2022-07-29T08:57:39.442Z,96.70
2022-07-29T09:00:19.093Z,96.20
2022-07-29T09:02:52.543Z,96.30
2022-07-29T09:05:20.034Z,96.40
2022-07-29T09:07:48.866Z,96.40
2022-07-29T09:14:42.080Z,95.70
2022-07-29T09:17:08.786Z,95.80
2022-07-29T09:19:37.743Z,96.00
2022-07-29T09:22:06.350Z,96.20
2022-07-29T09:24:35.600Z,96.60
2022-07-29T09:27:02.920Z,96.40
2022-07-29T09:29:32.148Z,96.40
2022-07-29T09:32:01.285Z,96.50
2022-07-29T09:34:31.015Z,96.30
2022-07-29T09:36:58.445Z,96.30
2022-07-29T09:39:31.653Z,96.40
2022-07-29T09:42:00.994Z,96.60
2022-07-29T09:44:27.993Z,96.60
2022-07-29T09:47:06.860Z,96.30
2022-07-29T09:49:51.046Z,96.30
2022-07-29T09:52:17.796Z,96.20
2022-07-29T09:54:44.385Z,96.30
2022-07-29T09:57:30.601Z,96.60
2022-07-29T10:00:27.122Z,96.30
2022-07-29T10:03:02.032Z,96.40
2022-07-29T10:05:36.512Z,96.50
2022-07-29T10:08:03.946Z,96.70
2022-07-29T10:10:37.442Z,97.20
2022-07-29T10:13:09.832Z,96.60
2022-07-29T10:15:45.792Z,96.50
2022-07-29T10:18:14.342Z,96.40
2022-07-29T10:20:41.390Z,96.70
2022-07-29T10:23:08.057Z,96.40
2022-07-29T10:25:34.683Z,96.20
2022-07-29T10:28:01.398Z,96.10
2022-07-29T10:30:28.631Z,96.10
2022-07-29T10:33:09.866Z,95.70
2022-07-29T10:36:14.321Z,96.20
2022-07-29T10:38:52.721Z,96.00
2022-07-29T10:41:31.932Z,96.10
2022-07-29T10:44:14.751Z,96.40
2022-07-29T10:46:44.937Z,96.50
2022-07-29T10:49:24.857Z,96.60
2022-07-29T10:51:51.791Z,96.40
2022-07-29T10:54:19.731Z,96.30
2022-07-29T10:56:47.622Z,96.40
2022-07-29T10:59:21.396Z,96.50
2022-07-29T11:01:52.466Z,96.00
2022-07-29T11:04:45.927Z,96.10
2022-07-29T11:07:15.259Z,96.30
2022-07-29T11:09:41.906Z,96.10
2022-07-29T11:12:39.245Z,95.90
2022-07-29T11:15:17.906Z,95.80
2022-07-29T11:18:00.283Z,95.90
2022-07-29T11:20:45.480Z,95.80
2022-07-29T11:23:33.983Z,95.80
2022-07-29T11:26:23.675Z,95.90
2022-07-29T11:29:00.292Z,95.90
2022-07-29T11:31:44.666Z,96.20
2022-07-29T11:34:17.315Z,96.20
2022-07-29T11:37:12.388Z,96.10
2022-07-29T11:39:54.350Z,96.10
2022-07-29T11:42:32.211Z,96.20
2022-07-29T11:45:09.011Z,96.20
2022-07-29T11:47:56.105Z,96.00
2022-07-29T11:50:36.275Z,95.90
2022-07-29T11:53:11.881Z,96.00
2022-07-29T11:55:51.368Z,96.00
2022-07-29T11:58:26.511Z,96.10
2022-07-29T12:00:55.577Z,96.10
2022-07-29T12:03:35.502Z,96.30
2022-07-29T12:06:23.420Z,96.10
2022-07-29T12:08:50.030Z,96.10
2022-07-29T12:11:20.391Z,96.50
2022-07-29T12:13:49.166Z,96.50
2022-07-29T12:16:16.312Z,96.40
2022-07-29T12:19:02.315Z,95.90
2022-07-29T12:21:31.031Z,95.80
2022-07-29T12:24:03.391Z,95.70
2022-07-29T12:26:35.908Z,95.90
2022-07-29T12:29:03.354Z,95.80
2022-07-29T12:31:42.976Z,95.90
2022-07-29T12:34:15.883Z,95.70
2022-07-29T12:36:43.912Z,95.00
2022-07-29T12:39:12.264Z,95.00
2022-07-29T12:41:39.933Z,95.50
2022-07-29T12:44:06.516Z,95.20
2022-07-29T12:46:33.496Z,95.00
2022-07-29T12:49:00.291Z,95.10
2022-07-29T12:51:38.379Z,94.70
2022-07-29T12:54:11.606Z,94.30
2022-07-29T12:56:44.378Z,94.40
2022-07-29T12:59:14.431Z,94.40
2022-07-29T13:01:41.218Z,94.40
2022-07-29T13:04:07.925Z,94.60
2022-07-29T13:06:46.096Z,94.70
2022-07-29T13:09:18.897Z,95.00
2022-07-29T13:11:48.843Z,95.00
2022-07-29T13:14:32.669Z,94.20
2022-07-29T13:17:17.617Z,93.70
2022-07-29T13:20:05.393Z,93.90
2022-07-29T13:22:35.746Z,93.90
2022-07-29T13:25:03.149Z,93.70
2022-07-29T13:27:32.980Z,93.80
2022-07-29T13:30:01.911Z,94.30
2022-07-29T13:32:30.709Z,93.80
2022-07-29T13:35:00.176Z,93.80
2022-07-29T13:37:27.371Z,93.60
2022-07-29T13:39:55.141Z,93.20
2022-07-29T13:42:21.828Z,93.00
2022-07-29T13:44:49.595Z,92.80
2022-07-29T13:47:17.098Z,92.70
2022-07-29T13:49:43.791Z,92.90
2022-07-29T13:52:10.468Z,93.20
2022-07-29T13:54:42.111Z,93.60
2022-07-29T13:57:11.539Z,93.40
2022-07-29T13:59:38.546Z,93.20
2022-07-29T14:02:05.914Z,93.10
2022-07-29T14:04:33.319Z,92.90
2022-07-29T14:07:00.199Z,92.60
2022-07-29T14:09:31.033Z,92.50
2022-07-29T14:12:08.183Z,92.60
2022-07-29T14:14:36.426Z,91.90
2022-07-29T14:17:04.101Z,92.00
2022-07-29T14:19:32.812Z,92.10
2022-07-29T14:21:59.902Z,92.10
2022-07-29T14:24:26.855Z,91.80
2022-07-29T14:26:53.559Z,92.10
2022-07-29T14:29:20.234Z,91.90
2022-07-29T14:31:46.855Z,91.50
2022-07-29T14:34:13.499Z,91.80
2022-07-29T14:36:40.062Z,92.40
2022-07-29T14:39:06.641Z,92.70
2022-07-29T14:41:33.707Z,92.80
2022-07-29T14:44:03.476Z,93.00
2022-07-29T14:46:30.299Z,92.90
2022-07-29T14:48:56.988Z,92.90
2022-07-29T14:51:23.589Z,93.00
2022-07-29T14:53:59.019Z,93.10
2022-07-29T14:56:46.535Z,93.10
2022-07-29T14:59:12.187Z,93.30
2022-07-29T15:01:38.857Z,93.40
2022-07-29T15:04:05.522Z,93.30
2022-07-29T15:06:32.218Z,93.70
2022-07-29T15:08:58.824Z,93.70
2022-07-29T15:11:26.353Z,93.50
2022-07-29T15:13:52.959Z,93.50
2022-07-29T15:16:19.765Z,93.40
2022-07-29T15:18:46.375Z,93.30
2022-07-29T15:21:12.982Z,93.20
2022-07-29T15:23:39.641Z,93.20
2022-07-29T15:26:06.235Z,93.30
2022-07-29T15:28:32.832Z,92.60
2022-07-29T15:30:59.476Z,93.00
2022-07-29T15:33:26.736Z,93.00
2022-07-29T15:35:53.364Z,93.00
2022-07-29T15:38:20.005Z,93.10
2022-07-29T15:40:55.565Z,93.00
2022-07-29T15:43:22.391Z,93.00
2022-07-29T15:46:07.856Z,92.90
2022-07-29T15:48:38.164Z,93.00
2022-07-29T15:51:04.801Z,93.30
2022-07-29T15:53:31.551Z,93.20
2022-07-29T15:55:59.751Z,93.50
2022-07-29T15:58:26.424Z,93.10
2022-07-29T16:00:53.091Z,93.10
2022-07-29T16:03:20.866Z,93.00
2022-07-29T16:05:47.451Z,93.00
2022-07-29T16:08:14.042Z,93.00
2022-07-29T16:10:41.121Z,92.90
2022-07-29T16:13:07.703Z,92.90
2022-07-29T16:15:34.295Z,92.90
2022-07-29T16:18:01.055Z,93.00
2022-07-29T16:20:27.730Z,93.40
2022-07-29T16:22:55.223Z,93.20
2022-07-29T16:25:29.555Z,93.20
2022-07-29T16:28:05.809Z,93.20
2022-07-29T16:30:32.438Z,93.00
2022-07-29T16:32:59.003Z,92.90
2022-07-29T16:35:25.673Z,92.90
2022-07-29T16:38:06.637Z,92.90
2022-07-29T16:40:33.311Z,93.00
2022-07-29T16:42:59.882Z,93.10
2022-07-29T16:45:26.603Z,93.10
2022-07-29T16:48:00.962Z,93.30
2022-07-29T16:50:28.762Z,93.30
2022-07-29T16:52:56.327Z,93.30
2022-07-29T16:55:23.467Z,93.50
2022-07-29T16:57:52.490Z,93.50
2022-07-29T17:00:19.884Z,93.60
2022-07-29T17:02:46.551Z,93.80
2022-07-29T17:05:13.233Z,93.60
2022-07-29T17:07:40.820Z,93.70
2022-07-29T17:10:08.174Z,93.80
2022-07-29T17:12:40.001Z,93.70
2022-07-29T17:15:08.808Z,93.80
2022-07-29T17:17:39.161Z,93.80
2022-07-29T17:20:21.567Z,93.90
2022-07-29T17:22:48.459Z,93.90
2022-07-29T17:25:21.035Z,94.00
2022-07-29T17:27:49.527Z,94.00
2022-07-29T17:30:16.234Z,94.10
2022-07-29T17:32:42.821Z,94.20
2022-07-29T17:35:28.281Z,94.20
2022-07-29T17:37:54.978Z,94.20
2022-07-29T17:40:21.857Z,94.20
2022-07-29T17:42:48.544Z,94.20
2022-07-29T17:45:15.165Z,94.30
2022-07-29T17:47:41.820Z,94.70
2022-07-29T17:50:08.723Z,94.30
2022-07-29T17:52:35.276Z,94.40
2022-07-29T17:55:02.571Z,94.50
2022-07-29T17:57:29.242Z,94.50
2022-07-29T17:59:55.858Z,94.60
2022-07-29T18:02:22.610Z,94.60
2022-07-29T18:04:53.124Z,94.70
2022-07-29T18:07:19.768Z,94.80
2022-07-29T18:09:46.394Z,94.80
2022-07-29T18:12:12.998Z,94.90
2022-07-29T18:14:39.590Z,94.90
2022-07-29T18:17:06.151Z,95.10
2022-07-29T18:19:32.810Z,95.10
2022-07-29T18:22:04.889Z,95.20
2022-07-29T18:24:32.404Z,95.40
2022-07-29T18:26:59.339Z,95.50
2022-07-29T18:29:28.739Z,95.60
2022-07-29T18:31:55.399Z,95.80
2022-07-29T18:34:21.985Z,96.00
2022-07-29T18:36:48.551Z,96.20
2022-07-29T18:39:20.639Z,96.50
2022-07-29T18:41:50.197Z,96.60
2022-07-29T18:44:21.930Z,96.90
2022-07-29T18:46:49.916Z,97.70
2022-07-29T18:49:16.614Z,98.80
2022-07-29T18:51:43.273Z,99.60
2022-07-29T18:54:10.753Z,99.90
2022-07-29T18:56:38.560Z,99.90
2022-07-29T18:59:05.307Z,99.90
2022-07-29T19:01:32.352Z,99.90
2022-07-29T19:04:00.079Z,99.90
2022-07-29T19:06:26.842Z,99.90
2022-07-29T19:08:53.588Z,99.90
2022-07-29T19:11:20.236Z,99.90
2022-07-29T19:13:46.947Z,99.90
2022-07-29T19:16:14.455Z,99.90
2022-07-29T19:18:41.640Z,99.90
2022-07-29T19:21:08.338Z,99.90
2022-07-29T19:23:59.976Z,99.90
2022-07-29T19:26:21.577Z,99.90
2022-07-29T19:28:48.851Z,99.90
2022-07-29T19:31:15.978Z,99.90
2022-07-29T19:33:42.787Z,99.90
2022-07-29T19:36:09.433Z,99.90
2022-07-29T19:38:38.153Z,99.90
2022-07-29T19:41:06.228Z,99.90
2022-07-29T19:43:50.844Z,99.90
2022-07-29T19:46:22.852Z,99.90
2022-07-29T19:48:50.171Z,99.90
2022-07-29T19:51:17.270Z,99.90
2022-07-29T19:53:43.871Z,99.90
2022-07-29T19:56:10.435Z,99.90
2022-07-29T19:58:37.161Z,99.90
2022-07-29T20:01:09.992Z,99.90
2022-07-29T20:03:39.652Z,99.90
2022-07-29T20:06:07.368Z,99.90
2022-07-29T20:08:34.282Z,99.90
2022-07-29T20:11:00.886Z,99.90
2022-07-29T20:13:27.503Z,99.90
2022-07-29T20:15:54.140Z,99.90
2022-07-29T20:18:20.764Z,99.90
2022-07-29T20:20:49.100Z,99.90
2022-07-29T20:23:16.417Z,99.90
2022-07-29T20:25:43.204Z,99.90
2022-07-29T20:28:09.964Z,99.90
2022-07-29T20:30:38.389Z,99.90
2022-07-29T20:33:05.485Z,99.90
2022-07-29T20:35:32.132Z,99.90
2022-07-29T20:37:59.714Z,99.90
2022-07-29T20:40:26.781Z,99.90
2022-07-29T20:42:54.478Z,99.90
2022-07-29T20:45:21.638Z,99.90
2022-07-29T20:47:48.458Z,99.90
2022-07-29T20:50:15.379Z,99.90
2022-07-29T20:52:43.949Z,99.90
2022-07-29T20:55:10.738Z,99.90
2022-07-29T20:57:39.427Z,99.90
2022-07-29T21:00:08.560Z,99.90
2022-07-29T21:02:35.707Z,99.90
2022-07-29T21:05:02.302Z,99.90
2022-07-29T21:07:28.925Z,99.90
2022-07-29T21:09:55.522Z,99.90
2022-07-29T21:12:22.593Z,99.90
2022-07-29T21:14:49.597Z,99.90
2022-07-29T21:17:19.197Z,99.90
2022-07-29T21:19:50.538Z,99.90
2022-07-29T21:22:18.721Z,99.90
2022-07-29T21:24:45.354Z,99.90
2022-07-29T21:27:30.497Z,99.90
2022-07-29T21:29:57.072Z,99.90
2022-07-29T21:32:27.402Z,99.90
2022-07-29T21:34:57.282Z,99.90
2022-07-29T21:37:23.897Z,99.90
2022-07-29T21:39:50.538Z,99.90
2022-07-29T21:42:17.131Z,99.90
2022-07-29T21:44:44.199Z,99.90
2022-07-29T21:47:11.737Z,99.90
2022-07-29T21:49:38.505Z,99.90
2022-07-29T21:52:06.115Z,99.90
2022-07-29T21:54:34.827Z,99.90
2022-07-29T21:57:01.776Z,99.90
2022-07-29T21:59:29.457Z,99.90
2022-07-29T22:01:56.412Z,99.90
2022-07-29T22:04:23.210Z,99.90
2022-07-29T22:06:49.953Z,99.90
2022-07-29T22:09:16.673Z,99.90
2022-07-29T22:11:43.556Z,99.90
2022-07-29T22:14:10.517Z,99.90
2022-07-29T22:16:37.365Z,99.90
2022-07-29T22:19:04.136Z,99.90
2022-07-29T22:21:31.135Z,99.90
2022-07-29T22:23:58.063Z,99.90
2022-07-29T22:26:24.789Z,99.90
2022-07-29T22:28:51.470Z,99.90
2022-07-29T22:31:18.467Z,99.90
2022-07-29T22:33:45.255Z,99.90
2022-07-29T22:36:11.881Z,99.90
2022-07-29T22:38:38.476Z,99.90
2022-07-29T22:41:05.131Z,99.90
2022-07-29T22:43:32.273Z,99.90
2022-07-29T22:45:58.994Z,99.90
2022-07-29T22:48:25.656Z,99.90
2022-07-29T22:50:52.438Z,99.90
2022-07-29T22:53:19.042Z,99.90
2022-07-29T22:55:45.659Z,99.90
2022-07-29T22:58:12.410Z,99.90
2022-07-29T23:00:39.041Z,99.90
2022-07-29T23:03:05.606Z,99.90
2022-07-29T23:05:32.644Z,99.90
2022-07-29T23:07:59.698Z,99.90
2022-07-29T23:10:26.486Z,99.90
2022-07-29T23:12:53.060Z,99.90
2022-07-29T23:15:19.979Z,99.90
2022-07-29T23:17:46.545Z,99.90
2022-07-29T23:20:13.662Z,99.90
2022-07-29T23:22:41.620Z,99.90
2022-07-29T23:25:08.687Z,99.90
2022-07-29T23:27:35.463Z,99.90
2022-07-29T23:30:02.606Z,99.90
2022-07-29T23:32:29.250Z,99.90
2022-07-29T23:34:55.869Z,99.90
2022-07-29T23:37:22.621Z,99.90
2022-07-29T23:39:49.197Z,99.90
2022-07-29T23:42:15.762Z,99.90
2022-07-29T23:44:42.353Z,99.90
2022-07-29T23:47:08.928Z,99.90
2022-07-29T23:49:35.798Z,99.90
2022-07-29T23:52:02.393Z,99.90
2022-07-29T23:54:28.935Z,99.90
2022-07-29T23:56:58.076Z,99.90
2022-07-29T23:59:25.151Z,99.90
